Time;durP1;ratioP1;P1;durP2;ratioP2;P2;SDS_P1;SDS_P2;PMS_P1;PMS_P2;Temp;Humidity;BMP_temperature;BMP_pressure;BME280_temperature;BME280_humidity;BME280_pressure;Samples;Min_cycle;Max_cycle;Signal;HPM_P1;HPM_P2
2023/10/18 00:00:59;;;;;;;26.92;8.35;;;;;;;;;;4974319;28;20488;-63
2023/10/18 00:03:32;;;;;;;47.45;10.70;;;;;;;;;;4974464;28;20137;-63
2023/10/18 00:05:59;;;;;;;47.17;12.60;;;;;;;;;;4974206;28;20035;-64
2023/10/18 00:08:24;;;;;;;66.65;15.70;;;;;;;;;;4974440;28;20374;-63
2023/10/18 00:10:53;;;;;;;54.63;14.48;;;;;;;;;;4974397;28;20042;-64
2023/10/18 00:13:22;;;;;;;49.17;13.13;;;;;;;;;;4974183;28;20027;-64
2023/10/18 00:15:52;;;;;;;67.15;16.90;;;;;;;;;;4974376;28;20030;-64
2023/10/18 00:18:19;;;;;;;114.18;28.95;;;;;;;;;;4974399;28;20114;-64
2023/10/18 00:20:45;;;;;;;115.82;30.45;;;;;;;;;;4974184;28;20041;-63
2023/10/18 00:23:10;;;;;;;111.22;27.75;;;;;;;;;;4974368;28;20034;-64
2023/10/18 00:25:36;;;;;;;101.55;24.38;;;;;;;;;;4974398;28;20082;-64
2023/10/18 00:28:03;;;;;;;91.45;23.77;;;;;;;;;;4972901;28;20023;-64
2023/10/18 00:30:30;;;;;;;65.68;19.45;;;;;;;;;;4974017;28;20026;-64
2023/10/18 00:32:56;;;;;;;76.28;21.75;;;;;;;;;;4973766;28;20074;-63
2023/10/18 00:35:31;;;;;;;77.97;22.10;;;;;;;;;;4974131;28;20038;-63
2023/10/18 00:37:56;;;;;;;51.63;17.13;;;;;;;;;;4974094;28;20030;-63
2023/10/18 00:43:03;;;;;;;42.17;14.75;;;;;;;;;;4973852;28;20488;-63
2023/10/18 00:45:29;;;;;;;36.03;12.25;;;;;;;;;;4973746;28;20424;-64
2023/10/18 00:47:57;;;;;;;36.95;12.25;;;;;;;;;;4973960;28;20129;-63
2023/10/18 00:50:27;;;;;;;31.85;9.80;;;;;;;;;;4973933;28;20023;-63
2023/10/18 00:52:53;;;;;;;;;;;;;;;;;;4974291;28;20031;-63
2023/10/18 00:55:19;;;;;;;26.52;8.63;;;;;;;;;;4974042;28;20005;-63
2023/10/18 00:57:44;;;;;;;27.27;10.25;;;;;;;;;;4973836;28;20118;-63
2023/10/18 01:00:12;;;;;;;25.05;8.93;;;;;;;;;;4973980;28;20105;-63
2023/10/18 01:02:41;;;;;;;24.92;9.20;;;;;;;;;;4974272;28;20027;-63
2023/10/18 01:05:11;;;;;;;20.30;8.27;;;;;;;;;;4977677;28;20042;-62
2023/10/18 01:07:37;;;;;;;26.73;7.85;;;;;;;;;;4977620;28;20023;-63
2023/10/18 01:10:07;;;;;;;18.58;7.43;;;;;;;;;;4977720;28;20069;-63
2023/10/18 01:12:34;;;;;;;20.98;7.93;;;;;;;;;;4977262;28;20031;-62
2023/10/18 01:15:01;;;;;;;13.65;5.78;;;;;;;;;;4977671;28;20030;-63
2023/10/18 01:17:27;;;;;;;20.15;8.55;;;;;;;;;;4977502;28;20031;-63
2023/10/18 01:19:53;;;;;;;17.83;7.20;;;;;;;;;;4977431;28;20373;-63
2023/10/18 01:22:19;;;;;;;15.15;6.90;;;;;;;;;;4977340;28;20187;-62
2023/10/18 01:24:45;;;;;;;14.13;6.55;;;;;;;;;;4977399;28;20023;-63
2023/10/18 01:27:12;;;;;;;12.80;5.93;;;;;;;;;;4977206;28;20066;-63
2023/10/18 01:29:39;;;;;;;17.10;6.63;;;;;;;;;;4977356;28;20026;-63
2023/10/18 01:32:05;;;;;;;15.82;6.10;;;;;;;;;;4977114;28;20057;-63
2023/10/18 01:34:31;;;;;;;13.88;5.32;;;;;;;;;;4977125;28;20027;-63
2023/10/18 01:36:58;;;;;;;9.52;3.95;;;;;;;;;;4977344;28;20453;-63
2023/10/18 01:39:28;;;;;;;9.90;3.80;;;;;;;;;;4977219;28;20027;-63
2023/10/18 01:41:54;;;;;;;8.65;4.82;;;;;;;;;;4976941;28;20038;-64
2023/10/18 01:44:35;;;;;;;12.57;5.03;;;;;;;;;;4976979;28;20022;-64
2023/10/18 01:47:08;;;;;;;9.45;4.00;;;;;;;;;;4957622;28;20023;-64
2023/10/18 01:49:44;;;;;;;9.43;3.63;;;;;;;;;;4957624;28;20030;-64
2023/10/18 01:52:11;;;;;;;8.27;3.45;;;;;;;;;;4957642;28;20504;-65
2023/10/18 01:54:38;;;;;;;7.70;3.25;;;;;;;;;;4957425;28;20030;-63
2023/10/18 01:57:06;;;;;;;8.05;3.75;;;;;;;;;;4957559;28;20117;-63
2023/10/18 01:59:34;;;;;;;6.78;3.38;;;;;;;;;;4957382;28;20027;-64
2023/10/18 02:02:05;;;;;;;10.65;3.70;;;;;;;;;;4957099;28;20035;-63
2023/10/18 02:04:36;;;;;;;6.45;3.47;;;;;;;;;;4957348;28;20027;-63
2023/10/18 02:07:02;;;;;;;9.70;3.85;;;;;;;;;;4957277;28;20031;-64
2023/10/18 02:09:48;;;;;;;9.48;4.25;;;;;;;;;;4957033;28;20376;-63
2023/10/18 02:12:19;;;;;;;7.72;3.67;;;;;;;;;;4957259;28;20029;-64
2023/10/18 02:14:56;;;;;;;7.53;3.47;;;;;;;;;;4957097;28;20082;-63
2023/10/18 02:17:21;;;;;;;6.70;3.10;;;;;;;;;;4957249;28;20059;-65
2023/10/18 02:19:51;;;;;;;5.43;2.83;;;;;;;;;;4957119;28;20133;-64
2023/10/18 02:22:16;;;;;;;8.50;3.20;;;;;;;;;;4956936;28;20038;-64
2023/10/18 02:24:45;;;;;;;8.50;3.45;;;;;;;;;;4956875;28;20031;-63
2023/10/18 02:27:15;;;;;;;8.27;3.47;;;;;;;;;;4956915;28;20075;-64
2023/10/18 02:29:44;;;;;;;6.80;2.97;;;;;;;;;;4957092;28;20031;-64
2023/10/18 02:34:54;;;;;;;5.18;2.95;;;;;;;;;;4974336;28;20392;-63
2023/10/18 02:37:19;;;;;;;6.13;3.13;;;;;;;;;;4976131;28;20023;-64
2023/10/18 02:39:46;;;;;;;6.18;3.35;;;;;;;;;;4975826;28;20074;-64
2023/10/18 02:42:13;;;;;;;8.82;2.92;;;;;;;;;;4975942;28;20034;-64
2023/10/18 02:44:44;;;;;;;5.88;2.88;;;;;;;;;;4975693;28;20081;-64
2023/10/18 02:47:16;;;;;;;6.65;3.00;;;;;;;;;;4975923;28;20038;-63
2023/10/18 02:49:45;;;;;;;6.60;2.55;;;;;;;;;;4975929;28;20106;-64
2023/10/18 02:52:11;;;;;;;5.95;2.63;;;;;;;;;;4975678;28;20061;-63
2023/10/18 02:54:39;;;;;;;4.55;2.65;;;;;;;;;;4975742;28;20026;-63
2023/10/18 02:57:05;;;;;;;4.70;2.60;;;;;;;;;;4975671;28;20050;-64
2023/10/18 02:59:31;;;;;;;6.38;2.40;;;;;;;;;;4975704;28;20448;-64
2023/10/18 03:02:00;;;;;;;36.72;14.82;;;;;;;;;;4975562;28;20461;-63
2023/10/18 03:04:27;;;;;;;13.13;5.80;;;;;;;;;;4975478;28;20113;-63
2023/10/18 03:06:53;;;;;;;6.68;3.47;;;;;;;;;;4975295;28;20101;-64
2023/10/18 03:12:01;;;;;;;9.98;3.30;;;;;;;;;;4975379;28;20027;-63
2023/10/18 03:14:54;;;;;;;9.00;3.47;;;;;;;;;;4975394;28;20027;-64
2023/10/18 03:19:50;;;;;;;6.85;3.08;;;;;;;;;;4975277;28;20023;-64
2023/10/18 03:22:19;;;;;;;5.53;2.95;;;;;;;;;;4974921;28;20038;-62
2023/10/18 03:24:54;;;;;;;6.15;2.90;;;;;;;;;;4975147;28;20065;-63
2023/10/18 03:27:20;;;;;;;6.18;2.88;;;;;;;;;;4974739;28;20031;-63
2023/10/18 03:29:46;;;;;;;5.47;3.25;;;;;;;;;;4975078;28;20023;-63
2023/10/18 03:32:19;;;;;;;3.90;2.50;;;;;;;;;;4974857;28;20373;-63
2023/10/18 03:34:45;;;;;;;5.28;2.95;;;;;;;;;;4975053;28;20484;-63
2023/10/18 03:37:25;;;;;;;7.57;2.90;;;;;;;;;;4974814;28;20077;-64
2023/10/18 03:39:55;;;;;;;11.70;3.65;;;;;;;;;;4973669;28;20050;-64
2023/10/18 03:42:33;;;;;;;6.05;3.47;;;;;;;;;;4974863;28;20034;-64
2023/10/18 03:45:00;;;;;;;7.70;3.58;;;;;;;;;;4974648;28;20031;-64
2023/10/18 03:47:26;;;;;;;7.07;3.20;;;;;;;;;;4974759;28;20027;-64
2023/10/18 03:49:53;;;;;;;7.30;3.40;;;;;;;;;;4974785;28;20037;-64
2023/10/18 03:52:20;;;;;;;6.28;3.08;;;;;;;;;;4974384;28;20147;-64
2023/10/18 03:54:56;;;;;;;6.95;3.20;;;;;;;;;;4974614;28;20027;-63
2023/10/18 03:57:29;;;;;;;4.55;2.67;;;;;;;;;;4973493;28;20050;-64
2023/10/18 03:59:58;;;;;;;7.07;3.05;;;;;;;;;;4974599;28;20035;-64
2023/10/18 04:04:57;;;;;;;4.70;2.85;;;;;;;;;;4974312;28;20031;-63
2023/10/18 04:07:24;;;;;;;7.65;3.15;;;;;;;;;;4974411;28;20162;-64
2023/10/18 04:12:27;;;;;;;9.05;3.80;;;;;;;;;;4974450;28;20022;-63
2023/10/18 04:14:58;;;;;;;6.97;3.40;;;;;;;;;;4974376;28;20019;-63
2023/10/18 04:17:44;;;;;;;6.03;3.78;;;;;;;;;;4973164;28;20027;-64
2023/10/18 04:22:51;;;;;;;15.35;8.00;;;;;;;;;;4974301;28;20031;-63
2023/10/18 04:25:25;;;;;;;16.08;6.00;;;;;;;;;;4974117;28;20397;-64
2023/10/18 04:27:54;;;;;;;9.50;4.72;;;;;;;;;;4974053;28;20105;-64
2023/10/18 04:30:22;;;;;;;9.15;4.57;;;;;;;;;;4974180;28;20078;-64
2023/10/18 04:32:59;;;;;;;12.20;4.25;;;;;;;;;;4973708;28;20050;-64
2023/10/18 04:35:29;;;;;;;8.88;4.45;;;;;;;;;;4973966;28;20039;-64
2023/10/18 04:37:55;;;;;;;8.65;4.15;;;;;;;;;;4973136;28;20645;-64
2023/10/18 04:40:22;;;;;;;11.38;5.13;;;;;;;;;;4973771;28;20047;-64
2023/10/18 04:42:51;;;;;;;11.65;5.18;;;;;;;;;;4974131;28;20085;-64
2023/10/18 04:45:18;;;;;;;9.70;4.15;;;;;;;;;;4973696;28;20022;-64
2023/10/18 04:47:47;;;;;;;7.57;3.97;;;;;;;;;;4973852;28;20492;-64
2023/10/18 04:50:18;;;;;;;;;;;;;;;;;;4974268;28;20085;-64
2023/10/18 04:52:47;;;;;;;6.60;3.35;;;;;;;;;;4974210;28;19921;-64
2023/10/18 04:55:16;;;;;;;5.80;2.90;;;;;;;;;;4973867;28;20475;-64
2023/10/18 04:57:42;;;;;;;5.55;3.10;;;;;;;;;;4973761;28;20066;-64
2023/10/18 05:00:24;;;;;;;8.00;3.67;;;;;;;;;;4973925;28;20483;-64
2023/10/18 05:02:58;;;;;;;5.85;3.33;;;;;;;;;;4973588;28;20026;-64
2023/10/18 05:05:26;;;;;;;9.70;3.65;;;;;;;;;;4973908;28;20035;-64
2023/10/18 05:07:54;;;;;;;6.82;3.58;;;;;;;;;;4973725;28;20046;-65
2023/10/18 05:10:21;;;;;;;8.23;3.40;;;;;;;;;;4973554;28;20427;-63
2023/10/18 05:13:01;;;;;;;9.40;3.47;;;;;;;;;;4973457;28;20034;-64
2023/10/18 05:15:29;;;;;;;6.18;3.67;;;;;;;;;;4972617;28;20023;-64
2023/10/18 05:18:04;;;;;;;7.57;3.50;;;;;;;;;;4973429;28;20031;-64
2023/10/18 05:23:19;;;;;;;5.90;3.40;;;;;;;;;;4973450;28;20387;-65
2023/10/18 05:25:45;;;;;;;8.57;3.67;;;;;;;;;;4973727;28;20034;-63
2023/10/18 05:36:29;;;;;;;10.43;5.00;;;;;;;;;;4973836;28;20030;-66
2023/10/18 05:38:56;;;;;;;11.38;4.88;;;;;;;;;;4973589;28;20109;-65
2023/10/18 05:43:58;;;;;;;8.00;3.60;;;;;;;;;;4973474;28;20045;-63
2023/10/18 05:46:28;;;;;;;10.65;4.90;;;;;;;;;;4968812;28;20035;-64
2023/10/18 05:48:57;;;;;;;8.98;3.72;;;;;;;;;;4974239;28;20498;-63
2023/10/18 05:51:34;;;;;;;5.65;3.42;;;;;;;;;;4976760;28;20027;-63
2023/10/18 05:54:00;;;;;;;5.50;3.05;;;;;;;;;;4976881;28;20035;-63
2023/10/18 05:56:29;;;;;;;9.38;3.75;;;;;;;;;;4976859;28;20074;-62
2023/10/18 06:01:58;;;;;;;6.75;2.90;;;;;;;;;;4976023;28;20445;-63
2023/10/18 06:04:24;;;;;;;6.85;3.40;;;;;;;;;;4976637;28;20022;-64
2023/10/18 06:07:04;;;;;;;7.95;3.55;;;;;;;;;;4976538;28;20027;-62
2023/10/18 06:09:33;;;;;;;4.80;2.85;;;;;;;;;;4976613;28;20031;-63
2023/10/18 06:12:00;;;;;;;7.47;3.60;;;;;;;;;;4977610;28;20035;-63
2023/10/18 06:14:39;;;;;;;6.55;3.50;;;;;;;;;;4980531;28;20518;-64
2023/10/18 06:17:12;;;;;;;8.02;3.83;;;;;;;;;;4985571;28;20105;-63
2023/10/18 06:19:38;;;;;;;7.47;3.83;;;;;;;;;;4990015;28;20032;-64
2023/10/18 06:24:49;;;;;;;8.77;3.92;;;;;;;;;;4988243;28;20607;-64
2023/10/18 06:27:18;;;;;;;6.05;3.78;;;;;;;;;;4986795;28;20065;-65
2023/10/18 06:29:51;;;;;;;8.17;3.33;;;;;;;;;;4980118;28;20457;-63
2023/10/18 06:32:22;;;;;;;8.25;3.65;;;;;;;;;;4991511;28;20685;-63
2023/10/18 06:34:49;;;;;;;7.43;3.60;;;;;;;;;;4980453;28;20088;-62
2023/10/18 06:37:21;;;;;;;6.25;3.60;;;;;;;;;;4984363;28;20027;-63
2023/10/18 06:39:51;;;;;;;7.10;3.45;;;;;;;;;;4990785;28;20080;-63
2023/10/18 06:42:17;;;;;;;7.90;3.67;;;;;;;;;;4978616;28;20125;-61
2023/10/18 06:44:43;;;;;;;11.18;4.18;;;;;;;;;;4992683;28;20538;-64
2023/10/18 06:47:13;;;;;;;5.72;3.45;;;;;;;;;;4985515;28;20030;-63
2023/10/18 06:49:42;;;;;;;7.68;3.42;;;;;;;;;;4981425;28;20396;-64
2023/10/18 06:52:09;;;;;;;6.20;3.75;;;;;;;;;;4983846;28;20030;-64
2023/10/18 06:54:39;;;;;;;8.38;4.05;;;;;;;;;;4982752;28;20023;-63
2023/10/18 06:57:16;;;;;;;8.35;4.25;;;;;;;;;;4972638;28;20365;-62
2023/10/18 06:59:44;;;;;;;11.15;4.63;;;;;;;;;;4960442;28;20035;-62
2023/10/18 07:02:12;;;;;;;8.10;4.00;;;;;;;;;;4991387;28;20038;-62
2023/10/18 07:04:38;;;;;;;8.52;4.40;;;;;;;;;;4978126;28;20463;-62
2023/10/18 07:07:13;;;;;;;11.05;5.43;;;;;;;;;;4980380;28;20027;-62
2023/10/18 07:09:42;;;;;;;11.82;4.90;;;;;;;;;;4975127;28;20027;-62
2023/10/18 07:12:17;;;;;;;8.95;4.95;;;;;;;;;;4975164;28;20027;-61
2023/10/18 07:14:43;;;;;;;8.85;4.65;;;;;;;;;;4974657;28;20023;-62
2023/10/18 07:17:11;;;;;;;6.53;3.85;;;;;;;;;;4975089;28;20031;-62
2023/10/18 07:22:17;;;;;;;9.02;3.67;;;;;;;;;;4974864;28;20030;-63
2023/10/18 07:24:47;;;;;;;5.90;3.92;;;;;;;;;;4975049;28;20019;-63
2023/10/18 07:27:15;;;;;;;4.93;3.00;;;;;;;;;;4974979;28;20023;-63
2023/10/18 07:29:46;;;;;;;8.35;3.15;;;;;;;;;;4974982;28;20495;-63
2023/10/18 07:32:15;;;;;;;5.97;3.05;;;;;;;;;;4974713;28;20050;-64
2023/10/18 07:34:42;;;;;;;6.25;3.15;;;;;;;;;;4966792;28;20369;-64
2023/10/18 07:37:17;;;;;;;10.05;3.47;;;;;;;;;;4965469;28;20102;-64
2023/10/18 07:39:56;;;;;;;4.38;3.05;;;;;;;;;;4968105;28;20025;-63
2023/10/18 07:42:26;;;;;;;10.73;3.88;;;;;;;;;;4956843;28;20054;-64
2023/10/18 07:44:53;;;;;;;10.25;3.92;;;;;;;;;;4961178;28;20562;-65
2023/10/18 07:47:20;;;;;;;11.45;3.72;;;;;;;;;;4973204;28;20380;-64
2023/10/18 07:49:45;;;;;;;9.15;3.10;;;;;;;;;;4972011;28;20543;-64
2023/10/18 07:52:13;;;;;;;6.85;2.00;;;;;;;;;;4972845;28;20110;-64
2023/10/18 07:54:39;;;;;;;3.20;1.77;;;;;;;;;;4972499;28;20022;-65
2023/10/18 07:57:08;;;;;;;5.95;2.17;;;;;;;;;;4972314;28;20023;-65
2023/10/18 07:59:45;;;;;;;8.88;2.30;;;;;;;;;;4972619;28;20042;-64
2023/10/18 08:02:19;;;;;;;5.13;2.17;;;;;;;;;;4972392;28;20026;-65
2023/10/18 08:04:47;;;;;;;4.63;1.80;;;;;;;;;;4953252;28;20062;-65
2023/10/18 08:07:20;;;;;;;5.78;2.05;;;;;;;;;;4963851;28;20018;-64
2023/10/18 08:09:48;;;;;;;4.40;2.22;;;;;;;;;;4972543;28;20022;-64
2023/10/18 08:14:50;;;;;;;4.88;1.83;;;;;;;;;;4974491;28;20034;-64
2023/10/18 08:22:45;;;;;;;4.88;2.10;;;;;;;;;;4974576;28;20058;-64
2023/10/18 08:25:24;;;;;;;5.15;1.77;;;;;;;;;;4974281;28;20480;-64
2023/10/18 08:27:51;;;;;;;4.75;1.80;;;;;;;;;;4974005;28;20031;-63
2023/10/18 08:33:08;;;;;;;7.47;3.10;;;;;;;;;;4952262;29;20041;-63
2023/10/18 08:35:34;;;;;;;6.53;3.20;;;;;;;;;;4952901;29;20035;-63
2023/10/18 08:38:01;;;;;;;9.27;3.33;;;;;;;;;;4952704;29;20078;-63
2023/10/18 08:40:27;;;;;;;4.35;1.50;;;;;;;;;;4952371;29;20035;-64
2023/10/18 08:43:05;;;;;;;4.88;1.65;;;;;;;;;;4952707;29;20596;-64
2023/10/18 08:45:36;;;;;;;3.30;1.40;;;;;;;;;;4947380;29;20118;-64
2023/10/18 08:48:09;;;;;;;5.10;1.80;;;;;;;;;;4952662;29;20425;-64
2023/10/18 08:50:39;;;;;;;4.72;1.73;;;;;;;;;;4952671;29;20047;-64
2023/10/18 08:53:05;;;;;;;5.13;2.10;;;;;;;;;;4952634;29;20035;-63
2023/10/18 08:55:52;;;;;;;3.83;2.00;;;;;;;;;;4952557;29;20369;-64
2023/10/18 08:58:19;;;;;;;7.45;1.95;;;;;;;;;;4952693;29;20038;-63
2023/10/18 09:03:24;;;;;;;4.32;1.98;;;;;;;;;;4952512;29;20039;-65
2023/10/18 09:06:02;;;;;;;6.00;2.00;;;;;;;;;;4952432;29;20070;-64
2023/10/18 09:08:35;;;;;;;3.08;1.70;;;;;;;;;;4952515;29;20481;-64
2023/10/18 09:11:04;;;;;;;4.43;1.80;;;;;;;;;;4972593;28;20041;-65
2023/10/18 09:13:33;;;;;;;4.15;1.80;;;;;;;;;;4973951;28;20117;-64
2023/10/18 09:16:04;;;;;;;6.65;1.95;;;;;;;;;;4973923;28;20022;-64
2023/10/18 09:18:34;;;;;;;5.72;1.95;;;;;;;;;;4973842;28;20034;-64
2023/10/18 09:21:17;;;;;;;;;;;;;;;;;;4973929;28;20039;-63
2023/10/18 09:23:44;;;;;;;5.00;1.75;;;;;;;;;;4974233;28;20299;-63
2023/10/18 09:26:12;;;;;;;3.80;1.50;;;;;;;;;;4977599;28;20142;-64
2023/10/18 09:28:41;;;;;;;5.22;1.50;;;;;;;;;;4977195;28;20054;-63
2023/10/18 09:31:10;;;;;;;3.63;1.58;;;;;;;;;;4976198;28;20030;-63
2023/10/18 09:33:48;;;;;;;4.65;1.88;;;;;;;;;;4976825;28;20051;-65
2023/10/18 09:36:19;;;;;;;3.85;1.48;;;;;;;;;;4977275;28;20041;-63
2023/10/18 09:38:46;;;;;;;4.22;1.50;;;;;;;;;;4977192;28;20433;-63
2023/10/18 09:41:12;;;;;;;8.18;1.88;;;;;;;;;;4977087;28;20034;-64
2023/10/18 09:43:38;;;;;;;5.05;1.88;;;;;;;;;;4977181;28;20023;-63
2023/10/18 09:46:04;;;;;;;4.63;1.75;;;;;;;;;;4969048;28;20453;-64
2023/10/18 09:48:38;;;;;;;3.35;1.52;;;;;;;;;;4957691;28;20028;-64
2023/10/18 09:51:09;;;;;;;3.78;1.50;;;;;;;;;;4957535;28;20023;-63
2023/10/18 09:53:37;;;;;;;4.60;1.50;;;;;;;;;;4957361;28;20039;-63
2023/10/18 09:56:04;;;;;;;5.07;1.35;;;;;;;;;;4957675;28;20031;-63
2023/10/18 09:58:33;;;;;;;3.92;1.70;;;;;;;;;;4957535;28;20560;-63
2023/10/18 10:01:13;;;;;;;8.93;3.95;;;;;;;;;;4957261;28;20098;-63
2023/10/18 10:03:40;;;;;;;;;;;;;;;;;;4957940;28;20401;-63
2023/10/18 10:06:06;;;;;;;12.60;4.40;;;;;;;;;;4957590;28;19930;-63
2023/10/18 10:08:32;;;;;;;11.30;4.28;;;;;;;;;;4957204;28;20019;-64
2023/10/18 10:11:12;;;;;;;14.88;5.03;;;;;;;;;;4957281;28;20031;-65
2023/10/18 10:13:38;;;;;;;9.43;4.47;;;;;;;;;;4957259;28;20024;-63
2023/10/18 10:16:08;;;;;;;9.65;4.43;;;;;;;;;;4957418;28;20027;-64
2023/10/18 10:18:38;;;;;;;10.48;5.20;;;;;;;;;;4957264;28;20035;-64
2023/10/18 10:21:08;;;;;;;10.17;5.30;;;;;;;;;;4957004;28;20027;-63
2023/10/18 10:23:35;;;;;;;10.57;5.15;;;;;;;;;;4957056;28;20024;-63
2023/10/18 10:26:12;;;;;;;11.00;5.25;;;;;;;;;;4956892;28;20042;-64
2023/10/18 10:31:50;;;;;;;9.75;4.97;;;;;;;;;;4956785;29;20039;-66
2023/10/18 10:34:24;;;;;;;8.55;4.57;;;;;;;;;;4969109;28;20059;-63
2023/10/18 10:36:53;;;;;;;9.38;4.35;;;;;;;;;;4974692;28;20031;-64
2023/10/18 10:39:30;;;;;;;12.37;4.20;;;;;;;;;;4975830;28;20138;-65
2023/10/18 10:42:08;;;;;;;4.13;2.33;;;;;;;;;;4975730;28;20489;-63
2023/10/18 10:44:54;;;;;;;5.90;3.25;;;;;;;;;;4975713;28;20086;-63
2023/10/18 10:47:31;;;;;;;5.05;2.83;;;;;;;;;;4958257;28;20042;-63
2023/10/18 10:49:58;;;;;;;8.02;3.80;;;;;;;;;;4956802;28;20075;-64
2023/10/18 10:52:29;;;;;;;8.65;3.63;;;;;;;;;;4956296;28;20477;-63
2023/10/18 10:55:17;;;;;;;6.40;3.58;;;;;;;;;;4956602;28;20027;-64
2023/10/18 10:57:46;;;;;;;9.88;3.90;;;;;;;;;;4956550;28;20054;-64
2023/10/18 11:03:06;;;;;;;7.72;3.20;;;;;;;;;;4956772;29;20272;-64
2023/10/18 11:05:39;;;;;;;4.88;2.00;;;;;;;;;;4956125;28;20468;-65
2023/10/18 11:08:05;;;;;;;6.95;1.98;;;;;;;;;;4956448;28;20027;-65
2023/10/18 11:10:39;;;;;;;2.45;1.50;;;;;;;;;;4956201;28;20416;-63
2023/10/18 11:13:06;;;;;;;3.83;1.65;;;;;;;;;;4956318;28;20082;-63
2023/10/18 11:15:35;;;;;;;5.35;2.20;;;;;;;;;;4955245;28;20114;-64
2023/10/18 11:18:20;;;;;;;2.50;1.35;;;;;;;;;;4956367;28;20024;-62
2023/10/18 11:20:58;;;;;;;3.67;1.65;;;;;;;;;;4955929;28;20038;-63
2023/10/18 11:23:28;;;;;;;5.65;1.58;;;;;;;;;;4956019;28;20019;-64
2023/10/18 11:25:59;;;;;;;4.03;1.98;;;;;;;;;;4955952;28;20377;-62
2023/10/18 11:28:29;;;;;;;4.65;1.65;;;;;;;;;;4955910;28;20023;-63
2023/10/18 11:30:56;;;;;;;3.80;1.73;;;;;;;;;;4955836;28;20080;-62
2023/10/18 11:33:46;;;;;;;4.20;2.10;;;;;;;;;;4960720;28;20050;-63
2023/10/18 11:36:13;;;;;;;8.38;2.60;;;;;;;;;;4974781;28;20420;-63
2023/10/18 11:38:39;;;;;;;7.43;3.30;;;;;;;;;;4975016;28;20031;-65
2023/10/18 11:41:11;;;;;;;9.98;3.58;;;;;;;;;;4974805;28;20031;-63
2023/10/18 11:43:40;;;;;;;12.27;3.40;;;;;;;;;;4975017;28;20109;-64
2023/10/18 11:46:07;;;;;;;11.60;4.07;;;;;;;;;;4966326;28;20039;-63
2023/10/18 11:48:33;;;;;;;15.25;4.82;;;;;;;;;;4955135;28;20023;-64
2023/10/18 11:50:59;;;;;;;7.47;3.20;;;;;;;;;;4955636;29;20023;-63
2023/10/18 11:53:26;;;;;;;11.07;3.58;;;;;;;;;;4955503;28;20074;-64
2023/10/18 11:56:01;;;;;;;5.65;2.90;;;;;;;;;;4955519;28;20023;-63
2023/10/18 11:58:31;;;;;;;9.85;3.70;;;;;;;;;;4955496;28;20027;-63
2023/10/18 12:01:00;;;;;;;9.13;3.78;;;;;;;;;;4955230;28;20105;-65
2023/10/18 12:03:29;;;;;;;12.15;3.95;;;;;;;;;;4955122;28;20395;-64
2023/10/18 12:05:56;;;;;;;6.97;3.55;;;;;;;;;;4955264;28;20028;-63
2023/10/18 12:08:23;;;;;;;6.47;3.25;;;;;;;;;;4955117;28;20031;-63
2023/10/18 12:10:49;;;;;;;5.90;3.30;;;;;;;;;;4955179;28;20077;-65
2023/10/18 12:13:17;;;;;;;8.07;3.30;;;;;;;;;;4955160;28;20473;-65
2023/10/18 12:15:42;;;;;;;10.75;3.63;;;;;;;;;;4955183;28;20028;-64
2023/10/18 12:18:09;;;;;;;7.82;3.22;;;;;;;;;;4954961;28;20085;-64
2023/10/18 12:20:35;;;;;;;9.07;4.00;;;;;;;;;;4954891;28;20027;-65
2023/10/18 12:23:02;;;;;;;11.27;3.72;;;;;;;;;;4954994;28;20032;-64
2023/10/18 12:25:28;;;;;;;9.55;3.80;;;;;;;;;;4954982;28;20448;-65
2023/10/18 12:27:55;;;;;;;8.77;4.38;;;;;;;;;;4954961;28;20106;-64
2023/10/18 12:30:38;;;;;;;12.43;4.78;;;;;;;;;;4954827;28;20034;-65
2023/10/18 12:33:06;;;;;;;11.30;4.22;;;;;;;;;;4957094;28;20051;-65
2023/10/18 12:35:37;;;;;;;8.50;4.70;;;;;;;;;;4974285;28;20027;-65
2023/10/18 12:38:13;;;;;;;13.52;4.35;;;;;;;;;;4974010;28;20106;-65
2023/10/18 12:40:50;;;;;;;9.85;4.25;;;;;;;;;;4974067;28;20027;-64
2023/10/18 12:43:19;;;;;;;7.18;3.72;;;;;;;;;;4974164;28;20549;-64
2023/10/18 12:45:51;;;;;;;8.57;4.05;;;;;;;;;;4968796;28;20118;-64
2023/10/18 12:48:22;;;;;;;9.15;4.18;;;;;;;;;;4954513;28;20046;-65
2023/10/18 12:50:52;;;;;;;11.48;4.00;;;;;;;;;;4954758;28;20105;-64
2023/10/18 12:55:58;;;;;;;12.25;4.50;;;;;;;;;;4954670;28;20388;-64
2023/10/18 12:58:28;;;;;;;13.00;4.80;;;;;;;;;;4954695;28;20020;-64
2023/10/18 13:01:10;;;;;;;13.23;5.60;;;;;;;;;;4958454;28;20479;-64
2023/10/18 13:03:44;;;;;;;50.28;20.15;;;;;;;;;;4958618;28;20034;-65
2023/10/18 13:06:15;;;;;;;25.45;12.05;;;;;;;;;;4958684;28;20492;-64
2023/10/18 13:08:55;;;;;;;11.70;4.20;;;;;;;;;;4958568;28;20046;-65
2023/10/18 13:14:13;;;;;;;7.72;4.20;;;;;;;;;;4958244;28;20250;-64
2023/10/18 13:16:39;;;;;;;9.75;4.68;;;;;;;;;;4958026;28;20501;-65
2023/10/18 13:19:06;;;;;;;11.85;5.28;;;;;;;;;;4958316;28;20042;-65
2023/10/18 13:21:32;;;;;;;7.10;2.63;;;;;;;;;;4958175;28;20031;-64
2023/10/18 13:24:16;;;;;;;8.32;3.10;;;;;;;;;;4957965;28;20385;-64
2023/10/18 13:26:45;;;;;;;8.70;2.60;;;;;;;;;;4958091;28;20070;-64
2023/10/18 13:29:30;;;;;;;6.13;2.25;;;;;;;;;;4958028;28;20027;-64
2023/10/18 13:31:59;;;;;;;6.75;2.35;;;;;;;;;;4957279;29;20370;-65
2023/10/18 13:34:32;;;;;;;5.10;2.28;;;;;;;;;;4970015;28;20084;-65
2023/10/18 13:36:59;;;;;;;4.80;2.00;;;;;;;;;;4974786;28;20019;-64
2023/10/18 13:39:27;;;;;;;4.72;2.40;;;;;;;;;;4975895;28;20079;-65
2023/10/18 13:41:53;;;;;;;6.20;2.17;;;;;;;;;;4975980;28;20062;-66
2023/10/18 13:44:21;;;;;;;4.95;2.20;;;;;;;;;;4975833;28;20503;-66
2023/10/18 13:46:56;;;;;;;10.10;2.53;;;;;;;;;;4962260;28;20027;-64
2023/10/18 13:49:23;;;;;;;5.72;2.20;;;;;;;;;;4956458;28;20027;-64
2023/10/18 13:51:49;;;;;;;4.32;2.33;;;;;;;;;;4956479;28;20027;-63
2023/10/18 13:54:15;;;;;;;6.15;2.60;;;;;;;;;;4956449;28;20042;-63
2023/10/18 13:56:41;;;;;;;5.00;2.22;;;;;;;;;;4956224;28;20035;-64
2023/10/18 13:59:07;;;;;;;9.95;2.63;;;;;;;;;;4956144;28;20023;-65
2023/10/18 14:01:34;;;;;;;9.20;2.40;;;;;;;;;;4956118;28;20059;-65
2023/10/18 14:04:01;;;;;;;5.13;2.50;;;;;;;;;;4956369;28;20098;-65
2023/10/18 14:06:28;;;;;;;7.00;3.17;;;;;;;;;;4956273;28;20101;-64
2023/10/18 14:08:54;;;;;;;11.93;3.65;;;;;;;;;;4956304;28;20028;-64
2023/10/18 14:11:20;;;;;;;8.68;2.90;;;;;;;;;;4955786;28;20118;-64
2023/10/18 14:13:48;;;;;;;7.03;2.90;;;;;;;;;;4955827;28;20037;-64
2023/10/18 14:16:16;;;;;;;6.18;2.45;;;;;;;;;;4956110;28;20034;-64
2023/10/18 14:18:47;;;;;;;6.40;1.90;;;;;;;;;;4956066;28;20094;-65
2023/10/18 14:21:13;;;;;;;5.68;2.08;;;;;;;;;;4955868;28;20035;-64
2023/10/18 14:23:44;;;;;;;6.07;2.72;;;;;;;;;;4955989;28;20115;-64
2023/10/18 14:26:10;;;;;;;11.50;2.53;;;;;;;;;;4956100;28;20039;-65
2023/10/18 14:28:40;;;;;;;8.30;3.25;;;;;;;;;;4955807;28;20433;-64
2023/10/18 14:31:12;;;;;;;5.38;2.65;;;;;;;;;;4955997;28;20042;-65
2023/10/18 14:33:42;;;;;;;7.07;2.43;;;;;;;;;;4913889;28;1430067;-65
2023/10/18 14:36:16;;;;;;;14.02;4.07;;;;;;;;;;4975989;28;20327;-63
2023/10/18 14:38:42;;;;;;;8.75;3.08;;;;;;;;;;4976106;28;20034;-64
2023/10/18 14:41:17;;;;;;;5.80;2.45;;;;;;;;;;4975982;28;20551;-64
2023/10/18 14:43:47;;;;;;;8.20;2.42;;;;;;;;;;4975947;28;20568;-66
2023/10/18 14:46:15;;;;;;;;;;;;;;;;;;4967632;28;20464;-64
2023/10/18 14:48:40;;;;;;;7.53;3.45;;;;;;;;;;4956529;28;19933;-64
2023/10/18 14:51:07;;;;;;;9.23;2.70;;;;;;;;;;4956740;28;20024;-65
2023/10/18 14:53:33;;;;;;;6.82;3.40;;;;;;;;;;4956712;28;20028;-64
2023/10/18 14:56:03;;;;;;;7.70;3.25;;;;;;;;;;4956573;28;20019;-65
2023/10/18 14:58:29;;;;;;;7.97;3.42;;;;;;;;;;4956261;28;20140;-65
2023/10/18 15:00:55;;;;;;;8.68;3.90;;;;;;;;;;4956337;28;20065;-65
2023/10/18 15:03:22;;;;;;;12.63;3.75;;;;;;;;;;4956548;28;20032;-64
2023/10/18 15:05:48;;;;;;;21.00;10.85;;;;;;;;;;4956093;28;20031;-64
2023/10/18 15:08:14;;;;;;;18.25;9.00;;;;;;;;;;4956393;28;20035;-64
2023/10/18 15:10:40;;;;;;;17.40;8.10;;;;;;;;;;4956179;28;20126;-65
2023/10/18 15:13:06;;;;;;;15.30;7.65;;;;;;;;;;4956186;28;20074;-64
2023/10/18 15:15:34;;;;;;;15.60;7.32;;;;;;;;;;4955107;29;20023;-64
2023/10/18 15:18:00;;;;;;;10.20;4.90;;;;;;;;;;4956100;28;20027;-64
2023/10/18 15:20:26;;;;;;;11.48;4.45;;;;;;;;;;4954783;29;20118;-65
2023/10/18 15:22:54;;;;;;;13.48;5.72;;;;;;;;;;4955348;28;20027;-64
2023/10/18 15:25:21;;;;;;;17.38;7.85;;;;;;;;;;4956121;28;20071;-65
2023/10/18 15:27:50;;;;;;;18.65;9.20;;;;;;;;;;4955824;28;20047;-64
2023/10/18 15:30:16;;;;;;;19.60;9.40;;;;;;;;;;4955927;28;20027;-64
2023/10/18 15:32:45;;;;;;;22.58;9.82;;;;;;;;;;4955577;28;20090;-64
2023/10/18 15:35:15;;;;;;;24.40;9.85;;;;;;;;;;4955859;28;20382;-65
2023/10/18 15:37:44;;;;;;;;;;;;;;;;;;4956277;28;20031;-62
2023/10/18 15:40:13;;;;;;;35.78;15.93;;;;;;;;;;4955747;28;20339;-63
2023/10/18 15:42:42;;;;;;;35.85;14.80;;;;;;;;;;4955380;28;20147;-64
2023/10/18 15:45:11;;;;;;;32.58;14.02;;;;;;;;;;4964926;28;20022;-64
2023/10/18 15:47:38;;;;;;;30.63;15.05;;;;;;;;;;4955498;28;20034;-63
2023/10/18 15:50:08;;;;;;;30.92;13.93;;;;;;;;;;4955340;28;20138;-63
2023/10/18 15:52:37;;;;;;;31.15;14.10;;;;;;;;;;4955307;28;20544;-63
2023/10/18 15:55:13;;;;;;;31.30;13.40;;;;;;;;;;4955233;28;20039;-63
2023/10/18 15:57:39;;;;;;;36.17;13.90;;;;;;;;;;4955488;28;20548;-64